23 a 29/4 - Perturbación de lento desplazamiento, PP loc. abundantes C, N, Patagonia N

Avatar de Usuario
Diecha
Mensajes: 12484
Registrado: Jue Ago 25, 2011 9:31 pm
Ubicación: Lomas de Zamora

Re: 23 a 29/4 - Perturbación de lento desplazamiento, PP loc. abundantes C, N, Patagonia N

Mensaje por Diecha » Mar Abr 28, 2020 12:36 pm

Buenas.

Imagen

Imagen
Spoiler
Mostrar
Imagen
Imagen
Imagen
Imagen
Imagen
Imagen
Imagen
Imagen
Imagen
Imagen
Imagen
Imagen
Imagen
Imagen
Imagen
Última edición por Diecha el Mar Abr 28, 2020 4:13 pm, editado 1 vez en total.

Avatar de Usuario
Fedex
Mensajes: 2952
Registrado: Jue Jul 17, 2014 3:30 pm
Ubicación: Villa Ballester, San Martin, Buenos Aires
Contactar:

Re: 23 a 29/4 - Perturbación de lento desplazamiento, PP loc. abundantes C, N, Patagonia N

Mensaje por Fedex » Mar Abr 28, 2020 12:36 pm

La de Baradero viene al final, y se intensifica. Bastante dificil la lectura con los radares.

Severa en media hora?

GLM

Imagen
Cada vez que se superan los 24°C de Td, un gatito renace.

#MuerteALasLineas

El corazón late y es suficiente

Avatar de Usuario
Diecha
Mensajes: 12484
Registrado: Jue Ago 25, 2011 9:31 pm
Ubicación: Lomas de Zamora

Re: 23 a 29/4 - Perturbación de lento desplazamiento, PP loc. abundantes C, N, Patagonia N

Mensaje por Diecha » Mar Abr 28, 2020 12:42 pm

- San Fernando 12:11 hs: 281511Z 34014G27KT 310V010 9000 -TSRA BKN008 FEW050CB OVC050 19/18 Q1008 (ráfaga de 50 Km/h)

Imagen

Avatar de Usuario
Santi
Mensajes: 2006
Registrado: Dom Jul 28, 2013 8:34 pm
Ubicación: Buenos Aires
Contactar:

Re: 23 a 29/4 - Perturbación de lento desplazamiento, PP loc. abundantes C, N, Patagonia N

Mensaje por Santi » Mar Abr 28, 2020 1:13 pm

DILUVIO TOTAL en La Matanza. Se está anegando.
MetRA - Meteorología de la República Argentina
Facebook: www.facebook.com/MetRAnoticias
Twitter: www.twitter.com/MetRAnoticias
Instagram: www.instagram.com/metranoticias


#MuerteAlasLineas (En común acuerdo con Fedex 8-))

Avatar de Usuario
diegotelesa
Mensajes: 1488
Registrado: Mié Jul 24, 2013 10:48 pm
Ubicación: Ramos Mejía

Re: 23 a 29/4 - Perturbación de lento desplazamiento, PP loc. abundantes C, N, Patagonia N

Mensaje por diegotelesa » Mar Abr 28, 2020 1:14 pm

Diluvia con actividad eléctrica!

facurg
Mensajes: 37
Registrado: Lun Dic 30, 2019 6:24 pm

Re: 23 a 29/4 - Perturbación de lento desplazamiento, PP loc. abundantes C, N, Patagonia N

Mensaje por facurg » Mar Abr 28, 2020 1:15 pm

Diluvia nuevamente en Lanús.

Avatar de Usuario
Marcelo_97
Mensajes: 3197
Registrado: Mar Nov 22, 2011 8:14 pm
Ubicación: Pontevedra, Merlo, Buenos Aires

Re: 23 a 29/4 - Perturbación de lento desplazamiento, PP loc. abundantes C, N, Patagonia N

Mensaje por Marcelo_97 » Mar Abr 28, 2020 1:15 pm

Tremendos bomabazos por aca, de a ratos llueve muy intenso!

Avatar de Usuario
Diecha
Mensajes: 12484
Registrado: Jue Ago 25, 2011 9:31 pm
Ubicación: Lomas de Zamora

Re: 23 a 29/4 - Perturbación de lento desplazamiento, PP loc. abundantes C, N, Patagonia N

Mensaje por Diecha » Mar Abr 28, 2020 1:19 pm

- San Fernando 13 hs: SADF 281600Z 31009KT 9999 -TSRA BKN010 FEW050CB OVC050 19/18 Q1010
- Aeroparque 13 hs: SABE 281600Z 34016KT 9000 -RA OVC011 19/18 Q1009 RETSRA
- Ezeiza 13 hs: SAEZ 281600Z 31009KT 0800 R11/1000 +RA BKN004 OVC016 20/18 Q1009

Imagen
Imagen
Imagen
Última edición por Diecha el Mar Abr 28, 2020 1:33 pm, editado 1 vez en total.

Avatar de Usuario
Santi
Mensajes: 2006
Registrado: Dom Jul 28, 2013 8:34 pm
Ubicación: Buenos Aires
Contactar:

Re: 23 a 29/4 - Perturbación de lento desplazamiento, PP loc. abundantes C, N, Patagonia N

Mensaje por Santi » Mar Abr 28, 2020 1:22 pm

Tremendos rayos a tierra!
MetRA - Meteorología de la República Argentina
Facebook: www.facebook.com/MetRAnoticias
Twitter: www.twitter.com/MetRAnoticias
Instagram: www.instagram.com/metranoticias


#MuerteAlasLineas (En común acuerdo con Fedex 8-))

Avatar de Usuario
Marg Tor
Mensajes: 1762
Registrado: Jue Sep 20, 2018 8:54 pm
Ubicación: Rosario

Re: 23 a 29/4 - Perturbación de lento desplazamiento, PP loc. abundantes C, N, Patagonia N

Mensaje por Marg Tor » Mar Abr 28, 2020 1:37 pm

El rate máximo de esta mañana fueron 117 mm/h. Era un tremendo diluvio.
Ahora ya rotó el viento al SSW.
Nena, vi un rayo... vuelvo en unas horas...
Te duele el calor y la humedad? Adermicina.
EMA Villa Gdor. Gálvez
EMA Villa Gdor. Gálvez Cooperativa

Responder